sensor_id;sensor_type;location;lat;lon;timestamp;temperature;humidity
11908;DHT22;6014;47.690;9.130;2022-08-14T00:00:01;14.10;99.90
11908;DHT22;6014;47.690;9.130;2022-08-14T00:02:31;14.10;99.90
11908;DHT22;6014;47.690;9.130;2022-08-14T00:05:03;14.00;99.90
11908;DHT22;6014;47.690;9.130;2022-08-14T00:07:33;13.80;99.90
11908;DHT22;6014;47.690;9.130;2022-08-14T00:10:11;13.80;99.90
11908;DHT22;6014;47.690;9.130;2022-08-14T00:12:59;13.80;99.90
11908;DHT22;6014;47.690;9.130;2022-08-14T00:15:35;13.80;99.90
11908;DHT22;6014;47.690;9.130;2022-08-14T00:18:15;13.90;99.90
11908;DHT22;6014;47.690;9.130;2022-08-14T00:21:06;13.80;99.90
11908;DHT22;6014;47.690;9.130;2022-08-14T00:23:38;13.70;99.90
11908;DHT22;6014;47.690;9.130;2022-08-14T00:26:07;13.80;99.90
11908;DHT22;6014;47.690;9.130;2022-08-14T00:28:49;13.70;99.90
11908;DHT22;6014;47.690;9.130;2022-08-14T00:31:19;13.70;99.90
11908;DHT22;6014;47.690;9.130;2022-08-14T00:34:03;13.50;99.90
11908;DHT22;6014;47.690;9.130;2022-08-14T00:36:53;13.30;99.90
11908;DHT22;6014;47.690;9.130;2022-08-14T00:39:26;13.40;99.90
11908;DHT22;6014;47.690;9.130;2022-08-14T00:41:56;13.60;99.90
11908;DHT22;6014;47.690;9.130;2022-08-14T00:44:24;13.60;99.90
11908;DHT22;6014;47.690;9.130;2022-08-14T00:46:59;13.60;99.90
11908;DHT22;6014;47.690;9.130;2022-08-14T00:49:29;13.50;99.90
11908;DHT22;6014;47.690;9.130;2022-08-14T00:52:10;13.30;99.90
11908;DHT22;6014;47.690;9.130;2022-08-14T00:54:48;13.20;99.90
11908;DHT22;6014;47.690;9.130;2022-08-14T00:57:25;13.20;99.90
11908;DHT22;6014;47.690;9.130;2022-08-14T00:59:55;13.20;99.90
11908;DHT22;6014;47.690;9.130;2022-08-14T01:02:24;13.30;99.90
11908;DHT22;6014;47.690;9.130;2022-08-14T01:04:58;13.30;99.90
11908;DHT22;6014;47.690;9.130;2022-08-14T01:07:27;13.20;99.90
11908;DHT22;6014;47.690;9.130;2022-08-14T01:10:19;13.10;99.90
11908;DHT22;6014;47.690;9.130;2022-08-14T05:42:28;13.00;99.90
11908;DHT22;6014;47.690;9.130;2022-08-14T05:45:03;14.30;99.90
11908;DHT22;6014;47.690;9.130;2022-08-14T05:47:39;14.70;99.90
11908;DHT22;6014;47.690;9.130;2022-08-14T05:50:10;15.10;99.90
11908;DHT22;6014;47.690;9.130;2022-08-14T05:57:52;15.40;99.90
11908;DHT22;6014;47.690;9.130;2022-08-14T06:00:28;16.00;99.90
11908;DHT22;6014;47.690;9.130;2022-08-14T06:03:08;16.40;99.90
11908;DHT22;6014;47.690;9.130;2022-08-14T06:05:36;16.50;99.90
11908;DHT22;6014;47.690;9.130;2022-08-14T06:08:05;16.70;99.90
11908;DHT22;6014;47.690;9.130;2022-08-14T06:11:02;16.80;99.90
11908;DHT22;6014;47.690;9.130;2022-08-14T06:13:41;17.00;99.90
11908;DHT22;6014;47.690;9.130;2022-08-14T06:18:47;17.30;99.90
11908;DHT22;6014;47.690;9.130;2022-08-14T06:21:19;18.20;99.90
11908;DHT22;6014;47.690;9.130;2022-08-14T06:23:48;18.40;99.90
11908;DHT22;6014;47.690;9.130;2022-08-14T06:26:17;18.70;99.90
11908;DHT22;6014;47.690;9.130;2022-08-14T06:28:48;18.60;99.90
11908;DHT22;6014;47.690;9.130;2022-08-14T06:31:20;18.60;99.90
11908;DHT22;6014;47.690;9.130;2022-08-14T06:33:51;18.90;99.90
11908;DHT22;6014;47.690;9.130;2022-08-14T06:36:39;19.50;99.90
11908;DHT22;6014;47.690;9.130;2022-08-14T06:39:07;19.90;99.90
11908;DHT22;6014;47.690;9.130;2022-08-14T06:41:37;19.90;99.90
11908;DHT22;6014;47.690;9.130;2022-08-14T06:44:26;20.10;99.90
11908;DHT22;6014;47.690;9.130;2022-08-14T06:46:59;20.10;99.90
11908;DHT22;6014;47.690;9.130;2022-08-14T06:49:30;19.90;99.90
11908;DHT22;6014;47.690;9.130;2022-08-14T06:52:11;20.00;99.90
11908;DHT22;6014;47.690;9.130;2022-08-14T06:54:42;20.20;99.90
11908;DHT22;6014;47.690;9.130;2022-08-14T06:57:11;20.40;99.90
11908;DHT22;6014;47.690;9.130;2022-08-14T06:59:40;19.80;99.90
11908;DHT22;6014;47.690;9.130;2022-08-14T07:02:08;20.00;99.90
11908;DHT22;6014;47.690;9.130;2022-08-14T07:04:56;20.00;99.90
11908;DHT22;6014;47.690;9.130;2022-08-14T07:07:49;20.50;99.90
11908;DHT22;6014;47.690;9.130;2022-08-14T07:10:17;20.60;99.90
11908;DHT22;6014;47.690;9.130;2022-08-14T07:12:51;21.00;99.90
11908;DHT22;6014;47.690;9.130;2022-08-14T07:18:06;21.10;99.90
11908;DHT22;6014;47.690;9.130;2022-08-14T07:20:37;21.90;99.90
11908;DHT22;6014;47.690;9.130;2022-08-14T07:23:09;22.00;99.90
11908;DHT22;6014;47.690;9.130;2022-08-14T07:25:51;21.60;99.90
11908;DHT22;6014;47.690;9.130;2022-08-14T07:28:22;21.70;99.90
11908;DHT22;6014;47.690;9.130;2022-08-14T07:30:52;21.70;99.90
11908;DHT22;6014;47.690;9.130;2022-08-14T07:33:33;21.50;99.90
11908;DHT22;6014;47.690;9.130;2022-08-14T07:36:05;22.00;99.90
11908;DHT22;6014;47.690;9.130;2022-08-14T07:38:55;22.30;99.90
11908;DHT22;6014;47.690;9.130;2022-08-14T07:41:23;22.70;99.90
11908;DHT22;6014;47.690;9.130;2022-08-14T07:44:00;22.70;99.90
11908;DHT22;6014;47.690;9.130;2022-08-14T07:46:48;23.40;99.90
11908;DHT22;6014;47.690;9.130;2022-08-14T07:49:16;23.90;99.90
11908;DHT22;6014;47.690;9.130;2022-08-14T07:51:47;24.30;99.40
11908;DHT22;6014;47.690;9.130;2022-08-14T07:54:16;24.50;96.80
11908;DHT22;6014;47.690;9.130;2022-08-14T07:56:56;23.00;99.20
11908;DHT22;6014;47.690;9.130;2022-08-14T07:59:26;23.30;99.90
11908;DHT22;6014;47.690;9.130;2022-08-14T08:02:09;24.20;96.90
11908;DHT22;6014;47.690;9.130;2022-08-14T08:04:49;24.20;95.20
11908;DHT22;6014;47.690;9.130;2022-08-14T08:07:24;23.90;95.70
11908;DHT22;6014;47.690;9.130;2022-08-14T08:09:56;23.80;94.60
11908;DHT22;6014;47.690;9.130;2022-08-14T08:12:28;23.50;97.80
11908;DHT22;6014;47.690;9.130;2022-08-14T08:14:59;23.70;95.80
11908;DHT22;6014;47.690;9.130;2022-08-14T08:17:34;23.90;95.80
11908;DHT22;6014;47.690;9.130;2022-08-14T08:20:14;24.50;93.10
11908;DHT22;6014;47.690;9.130;2022-08-14T08:22:48;24.60;92.60
11908;DHT22;6014;47.690;9.130;2022-08-14T08:25:22;25.00;91.40
11908;DHT22;6014;47.690;9.130;2022-08-14T08:27:59;24.70;90.90
11908;DHT22;6014;47.690;9.130;2022-08-14T08:30:36;25.30;89.10
11908;DHT22;6014;47.690;9.130;2022-08-14T08:33:16;25.30;85.20
11908;DHT22;6014;47.690;9.130;2022-08-14T08:35:45;24.20;90.20
11908;DHT22;6014;47.690;9.130;2022-08-14T08:38:21;24.60;88.80
11908;DHT22;6014;47.690;9.130;2022-08-14T08:41:10;24.60;88.30
11908;DHT22;6014;47.690;9.130;2022-08-14T08:43:39;24.60;90.90
11908;DHT22;6014;47.690;9.130;2022-08-14T08:46:14;25.70;89.70
11908;DHT22;6014;47.690;9.130;2022-08-14T08:48:51;26.50;84.10
11908;DHT22;6014;47.690;9.130;2022-08-14T08:51:20;27.00;79.90
11908;DHT22;6014;47.690;9.130;2022-08-14T08:54:00;25.80;80.30
11908;DHT22;6014;47.690;9.130;2022-08-14T08:56:33;25.60;80.70
11908;DHT22;6014;47.690;9.130;2022-08-14T08:59:17;26.10;80.40
11908;DHT22;6014;47.690;9.130;2022-08-14T09:01:51;26.30;77.70
11908;DHT22;6014;47.690;9.130;2022-08-14T09:04:24;27.30;76.70
11908;DHT22;6014;47.690;9.130;2022-08-14T09:06:53;27.70;78.20
11908;DHT22;6014;47.690;9.130;2022-08-14T09:09:37;28.30;71.80
11908;DHT22;6014;47.690;9.130;2022-08-14T09:12:26;27.90;68.40
11908;DHT22;6014;47.690;9.130;2022-08-14T09:14:59;28.10;69.60
11908;DHT22;6014;47.690;9.130;2022-08-14T09:17:29;27.00;69.60
11908;DHT22;6014;47.690;9.130;2022-08-14T09:19:59;27.20;71.70
11908;DHT22;6014;47.690;9.130;2022-08-14T09:22:31;26.60;71.50
11908;DHT22;6014;47.690;9.130;2022-08-14T09:25:15;26.70;72.70
11908;DHT22;6014;47.690;9.130;2022-08-14T09:27:46;25.90;75.60
11908;DHT22;6014;47.690;9.130;2022-08-14T09:30:16;26.40;75.00
11908;DHT22;6014;47.690;9.130;2022-08-14T09:36:12;28.00;70.40
11908;DHT22;6014;47.690;9.130;2022-08-14T09:38:53;28.70;65.20
11908;DHT22;6014;47.690;9.130;2022-08-14T09:41:36;29.00;58.80
11908;DHT22;6014;47.690;9.130;2022-08-14T09:44:41;28.80;55.80
11908;DHT22;6014;47.690;9.130;2022-08-14T09:47:15;28.80;53.80
11908;DHT22;6014;47.690;9.130;2022-08-14T09:49:45;29.20;53.10
11908;DHT22;6014;47.690;9.130;2022-08-14T09:52:19;29.20;53.40
11908;DHT22;6014;47.690;9.130;2022-08-14T09:55:16;29.50;52.50
11908;DHT22;6014;47.690;9.130;2022-08-14T09:57:49;29.60;50.80
11908;DHT22;6014;47.690;9.130;2022-08-14T10:00:40;30.00;50.40
11908;DHT22;6014;47.690;9.130;2022-08-14T10:03:10;29.90;48.90
11908;DHT22;6014;47.690;9.130;2022-08-14T10:08:19;30.10;49.20
11908;DHT22;6014;47.690;9.130;2022-08-14T10:10:52;30.60;50.20
11908;DHT22;6014;47.690;9.130;2022-08-14T10:13:30;31.20;51.40
11908;DHT22;6014;47.690;9.130;2022-08-14T10:19:04;31.40;45.40
11908;DHT22;6014;47.690;9.130;2022-08-14T10:21:36;30.70;47.20
11908;DHT22;6014;47.690;9.130;2022-08-14T10:24:27;29.50;51.40
11908;DHT22;6014;47.690;9.130;2022-08-14T10:27:04;29.00;52.00
11908;DHT22;6014;47.690;9.130;2022-08-14T10:29:49;28.70;54.40
11908;DHT22;6014;47.690;9.130;2022-08-14T10:32:18;29.00;53.60
11908;DHT22;6014;47.690;9.130;2022-08-14T10:35:08;29.80;52.90
11908;DHT22;6014;47.690;9.130;2022-08-14T10:37:44;30.70;51.50
11908;DHT22;6014;47.690;9.130;2022-08-14T10:40:24;30.70;49.70
11908;DHT22;6014;47.690;9.130;2022-08-14T10:43:18;31.00;51.20
11908;DHT22;6014;47.690;9.130;2022-08-14T10:45:58;31.20;49.50
11908;DHT22;6014;47.690;9.130;2022-08-14T10:48:55;31.00;46.90
11908;DHT22;6014;47.690;9.130;2022-08-14T10:51:24;30.60;47.10
11908;DHT22;6014;47.690;9.130;2022-08-14T10:53:57;30.80;47.20
11908;DHT22;6014;47.690;9.130;2022-08-14T10:56:43;30.90;46.60
11908;DHT22;6014;47.690;9.130;2022-08-14T10:59:13;31.60;46.30
11908;DHT22;6014;47.690;9.130;2022-08-14T11:01:44;31.70;45.30
11908;DHT22;6014;47.690;9.130;2022-08-14T11:04:21;31.70;45.60
11908;DHT22;6014;47.690;9.130;2022-08-14T11:06:57;32.00;44.20
11908;DHT22;6014;47.690;9.130;2022-08-14T11:09:25;32.30;44.20
11908;DHT22;6014;47.690;9.130;2022-08-14T11:11:58;31.70;44.60
11908;DHT22;6014;47.690;9.130;2022-08-14T11:14:54;32.10;45.40
11908;DHT22;6014;47.690;9.130;2022-08-14T11:17:30;31.80;42.90
11908;DHT22;6014;47.690;9.130;2022-08-14T11:20:06;32.00;45.80
11908;DHT22;6014;47.690;9.130;2022-08-14T11:22:42;32.20;41.60
11908;DHT22;6014;47.690;9.130;2022-08-14T11:25:29;32.80;43.00
11908;DHT22;6014;47.690;9.130;2022-08-14T11:28:11;32.90;43.90
11908;DHT22;6014;47.690;9.130;2022-08-14T11:30:46;32.90;41.00
11908;DHT22;6014;47.690;9.130;2022-08-14T11:33:22;32.20;41.00
11908;DHT22;6014;47.690;9.130;2022-08-14T11:35:51;32.00;39.70
11908;DHT22;6014;47.690;9.130;2022-08-14T11:38:26;31.80;40.60
11908;DHT22;6014;47.690;9.130;2022-08-14T11:40:56;31.00;41.00
11908;DHT22;6014;47.690;9.130;2022-08-14T11:43:27;30.20;40.60
11908;DHT22;6014;47.690;9.130;2022-08-14T11:45:59;30.70;38.20
11908;DHT22;6014;47.690;9.130;2022-08-14T11:48:44;30.90;41.60
11908;DHT22;6014;47.690;9.130;2022-08-14T11:51:30;31.10;41.20
11908;DHT22;6014;47.690;9.130;2022-08-14T11:54:20;31.00;39.70
11908;DHT22;6014;47.690;9.130;2022-08-14T11:57:01;31.00;39.60
11908;DHT22;6014;47.690;9.130;2022-08-14T11:59:30;30.70;38.80
11908;DHT22;6014;47.690;9.130;2022-08-14T12:02:08;30.20;37.70
11908;DHT22;6014;47.690;9.130;2022-08-14T12:04:58;30.50;36.50
11908;DHT22;6014;47.690;9.130;2022-08-14T12:07:30;30.70;36.80
11908;DHT22;6014;47.690;9.130;2022-08-14T12:10:00;30.40;38.70
11908;DHT22;6014;47.690;9.130;2022-08-14T12:12:48;30.20;38.80
11908;DHT22;6014;47.690;9.130;2022-08-14T12:15:31;30.70;36.30
11908;DHT22;6014;47.690;9.130;2022-08-14T12:18:02;30.70;35.60
11908;DHT22;6014;47.690;9.130;2022-08-14T12:20:34;30.70;36.10
11908;DHT22;6014;47.690;9.130;2022-08-14T12:23:20;30.90;36.70
11908;DHT22;6014;47.690;9.130;2022-08-14T12:26:01;30.40;33.80
11908;DHT22;6014;47.690;9.130;2022-08-14T12:28:50;30.40;37.30
11908;DHT22;6014;47.690;9.130;2022-08-14T12:31:26;30.30;36.40
11908;DHT22;6014;47.690;9.130;2022-08-14T12:34:12;30.20;38.90
11908;DHT22;6014;47.690;9.130;2022-08-14T12:37:00;30.00;36.80
11908;DHT22;6014;47.690;9.130;2022-08-14T12:39:32;29.80;38.90
11908;DHT22;6014;47.690;9.130;2022-08-14T12:42:07;29.70;39.10
11908;DHT22;6014;47.690;9.130;2022-08-14T12:44:56;29.90;38.90
11908;DHT22;6014;47.690;9.130;2022-08-14T12:47:29;30.00;38.50
11908;DHT22;6014;47.690;9.130;2022-08-14T12:49:58;29.40;38.50
11908;DHT22;6014;47.690;9.130;2022-08-14T12:52:32;29.10;39.20
11908;DHT22;6014;47.690;9.130;2022-08-14T12:55:19;29.30;40.30
11908;DHT22;6014;47.690;9.130;2022-08-14T12:57:58;29.30;40.20
11908;DHT22;6014;47.690;9.130;2022-08-14T13:00:49;29.10;42.40
11908;DHT22;6014;47.690;9.130;2022-08-14T13:03:38;29.10;42.60
11908;DHT22;6014;47.690;9.130;2022-08-14T13:06:11;28.90;43.80
11908;DHT22;6014;47.690;9.130;2022-08-14T13:08:42;29.00;44.20
11908;DHT22;6014;47.690;9.130;2022-08-14T13:11:19;29.10;44.60
11908;DHT22;6014;47.690;9.130;2022-08-14T13:13:56;29.00;43.90
11908;DHT22;6014;47.690;9.130;2022-08-14T13:16:28;29.20;46.60
11908;DHT22;6014;47.690;9.130;2022-08-14T13:19:05;29.40;45.40
11908;DHT22;6014;47.690;9.130;2022-08-14T13:21:38;29.80;44.30
11908;DHT22;6014;47.690;9.130;2022-08-14T13:24:28;29.60;44.00
11908;DHT22;6014;47.690;9.130;2022-08-14T13:27:00;29.10;44.00
11908;DHT22;6014;47.690;9.130;2022-08-14T13:29:35;29.00;44.00
11908;DHT22;6014;47.690;9.130;2022-08-14T13:32:06;29.00;45.60
11908;DHT22;6014;47.690;9.130;2022-08-14T13:34:37;29.20;45.00
11908;DHT22;6014;47.690;9.130;2022-08-14T13:37:06;29.10;45.30
11908;DHT22;6014;47.690;9.130;2022-08-14T13:39:37;29.10;45.50
11908;DHT22;6014;47.690;9.130;2022-08-14T13:42:06;29.40;46.30
11908;DHT22;6014;47.690;9.130;2022-08-14T13:44:39;29.50;46.50
11908;DHT22;6014;47.690;9.130;2022-08-14T13:47:11;29.80;46.10
11908;DHT22;6014;47.690;9.130;2022-08-14T13:49:41;29.70;45.60
11908;DHT22;6014;47.690;9.130;2022-08-14T13:52:24;29.60;45.60
11908;DHT22;6014;47.690;9.130;2022-08-14T13:55:18;29.30;47.20
11908;DHT22;6014;47.690;9.130;2022-08-14T13:57:48;29.10;47.10
11908;DHT22;6014;47.690;9.130;2022-08-14T14:00:32;29.10;47.50
11908;DHT22;6014;47.690;9.130;2022-08-14T14:03:20;29.30;48.30
11908;DHT22;6014;47.690;9.130;2022-08-14T14:05:50;29.30;48.80
11908;DHT22;6014;47.690;9.130;2022-08-14T14:08:22;29.40;48.90
11908;DHT22;6014;47.690;9.130;2022-08-14T14:11:12;29.00;48.70
11908;DHT22;6014;47.690;9.130;2022-08-14T14:13:42;29.10;48.50
11908;DHT22;6014;47.690;9.130;2022-08-14T14:16:12;29.10;48.50
11908;DHT22;6014;47.690;9.130;2022-08-14T14:18:49;29.10;48.10
11908;DHT22;6014;47.690;9.130;2022-08-14T14:21:23;29.40;47.80
11908;DHT22;6014;47.690;9.130;2022-08-14T14:23:55;29.70;47.70
11908;DHT22;6014;47.690;9.130;2022-08-14T14:26:26;29.80;48.10
11908;DHT22;6014;47.690;9.130;2022-08-14T14:28:59;29.90;48.30
11908;DHT22;6014;47.690;9.130;2022-08-14T14:31:28;29.70;48.20
11908;DHT22;6014;47.690;9.130;2022-08-14T14:34:00;29.80;47.90
11908;DHT22;6014;47.690;9.130;2022-08-14T14:36:46;29.60;49.00
11908;DHT22;6014;47.690;9.130;2022-08-14T14:39:23;29.60;49.70
11908;DHT22;6014;47.690;9.130;2022-08-14T14:41:57;29.40;50.00
11908;DHT22;6014;47.690;9.130;2022-08-14T14:44:33;29.20;50.60
11908;DHT22;6014;47.690;9.130;2022-08-14T14:47:11;29.10;51.00
11908;DHT22;6014;47.690;9.130;2022-08-14T14:49:44;29.00;50.30
11908;DHT22;6014;47.690;9.130;2022-08-14T14:52:21;28.90;50.70
11908;DHT22;6014;47.690;9.130;2022-08-14T14:54:54;28.80;51.00
11908;DHT22;6014;47.690;9.130;2022-08-14T14:57:26;28.80;52.10
11908;DHT22;6014;47.690;9.130;2022-08-14T15:00:04;29.10;52.30
11908;DHT22;6014;47.690;9.130;2022-08-14T15:02:35;29.50;50.00
11908;DHT22;6014;47.690;9.130;2022-08-14T15:05:04;30.00;48.90
11908;DHT22;6014;47.690;9.130;2022-08-14T15:07:34;29.90;48.80
11908;DHT22;6014;47.690;9.130;2022-08-14T15:10:03;29.90;49.30
11908;DHT22;6014;47.690;9.130;2022-08-14T15:12:54;30.00;49.30
11908;DHT22;6014;47.690;9.130;2022-08-14T15:15:26;30.10;48.70
11908;DHT22;6014;47.690;9.130;2022-08-14T15:17:58;29.90;48.10
11908;DHT22;6014;47.690;9.130;2022-08-14T15:20:27;30.00;47.70
11908;DHT22;6014;47.690;9.130;2022-08-14T15:22:57;29.60;46.50
11908;DHT22;6014;47.690;9.130;2022-08-14T15:25:38;29.50;46.50
11908;DHT22;6014;47.690;9.130;2022-08-14T15:28:09;30.00;48.20
11908;DHT22;6014;47.690;9.130;2022-08-14T15:30:47;29.90;48.20
11908;DHT22;6014;47.690;9.130;2022-08-14T15:33:24;30.00;46.80
11908;DHT22;6014;47.690;9.130;2022-08-14T15:36:27;29.90;47.50
11908;DHT22;6014;47.690;9.130;2022-08-14T15:38:56;29.50;46.40
11908;DHT22;6014;47.690;9.130;2022-08-14T15:41:25;28.80;45.60
11908;DHT22;6014;47.690;9.130;2022-08-14T15:44:09;28.60;46.00
11908;DHT22;6014;47.690;9.130;2022-08-14T15:46:53;28.20;46.70
11908;DHT22;6014;47.690;9.130;2022-08-14T15:49:25;28.00;46.90
11908;DHT22;6014;47.690;9.130;2022-08-14T15:52:01;28.10;48.30
11908;DHT22;6014;47.690;9.130;2022-08-14T15:54:30;28.00;48.60
11908;DHT22;6014;47.690;9.130;2022-08-14T15:57:02;27.80;49.30
11908;DHT22;6014;47.690;9.130;2022-08-14T15:59:37;27.50;48.70
11908;DHT22;6014;47.690;9.130;2022-08-14T16:02:24;27.60;48.80
11908;DHT22;6014;47.690;9.130;2022-08-14T16:04:54;27.70;49.50
11908;DHT22;6014;47.690;9.130;2022-08-14T16:07:24;27.70;49.20
11908;DHT22;6014;47.690;9.130;2022-08-14T16:09:53;27.60;49.80
11908;DHT22;6014;47.690;9.130;2022-08-14T16:12:47;27.60;50.70
11908;DHT22;6014;47.690;9.130;2022-08-14T16:15:21;27.40;50.20
11908;DHT22;6014;47.690;9.130;2022-08-14T16:17:58;27.20;51.60
11908;DHT22;6014;47.690;9.130;2022-08-14T16:20:28;27.10;52.30
11908;DHT22;6014;47.690;9.130;2022-08-14T16:23:10;26.80;52.70
11908;DHT22;6014;47.690;9.130;2022-08-14T16:25:41;26.60;52.20
11908;DHT22;6014;47.690;9.130;2022-08-14T16:28:10;26.50;52.90
11908;DHT22;6014;47.690;9.130;2022-08-14T16:30:55;26.40;53.40
11908;DHT22;6014;47.690;9.130;2022-08-14T16:33:23;26.40;54.00
11908;DHT22;6014;47.690;9.130;2022-08-14T16:36:13;26.30;53.60
11908;DHT22;6014;47.690;9.130;2022-08-14T16:38:57;26.20;54.20
11908;DHT22;6014;47.690;9.130;2022-08-14T16:41:26;26.20;54.80
11908;DHT22;6014;47.690;9.130;2022-08-14T16:43:58;26.10;55.10
11908;DHT22;6014;47.690;9.130;2022-08-14T16:46:31;26.10;55.70
11908;DHT22;6014;47.690;9.130;2022-08-14T16:49:02;26.00;55.70
11908;DHT22;6014;47.690;9.130;2022-08-14T16:51:34;26.00;56.00
11908;DHT22;6014;47.690;9.130;2022-08-14T16:54:06;26.00;56.10
11908;DHT22;6014;47.690;9.130;2022-08-14T16:56:47;26.00;56.20
11908;DHT22;6014;47.690;9.130;2022-08-14T16:59:19;25.90;56.30
11908;DHT22;6014;47.690;9.130;2022-08-14T17:02:11;26.00;56.90
11908;DHT22;6014;47.690;9.130;2022-08-14T17:04:44;26.00;56.20
11908;DHT22;6014;47.690;9.130;2022-08-14T17:07:15;25.90;55.50
11908;DHT22;6014;47.690;9.130;2022-08-14T17:09:45;26.00;56.10
11908;DHT22;6014;47.690;9.130;2022-08-14T17:12:17;25.90;56.00
11908;DHT22;6014;47.690;9.130;2022-08-14T17:15:03;25.90;55.70
11908;DHT22;6014;47.690;9.130;2022-08-14T17:17:48;25.80;55.40
11908;DHT22;6014;47.690;9.130;2022-08-14T17:20:25;25.90;54.80
11908;DHT22;6014;47.690;9.130;2022-08-14T17:23:13;25.80;54.10
11908;DHT22;6014;47.690;9.130;2022-08-14T17:25:43;25.80;52.20
11908;DHT22;6014;47.690;9.130;2022-08-14T17:28:18;25.80;52.80
11908;DHT22;6014;47.690;9.130;2022-08-14T17:31:07;25.70;52.50
11908;DHT22;6014;47.690;9.130;2022-08-14T17:33:40;25.70;52.10
11908;DHT22;6014;47.690;9.130;2022-08-14T17:36:20;25.60;51.60
11908;DHT22;6014;47.690;9.130;2022-08-14T17:38:58;25.60;52.00
11908;DHT22;6014;47.690;9.130;2022-08-14T17:41:35;25.50;52.00
11908;DHT22;6014;47.690;9.130;2022-08-14T17:44:19;25.50;51.80
11908;DHT22;6014;47.690;9.130;2022-08-14T17:47:08;25.30;51.80
11908;DHT22;6014;47.690;9.130;2022-08-14T17:49:48;25.20;51.60
11908;DHT22;6014;47.690;9.130;2022-08-14T17:57:57;25.10;51.20
11908;DHT22;6014;47.690;9.130;2022-08-14T18:00:26;24.80;52.40
11908;DHT22;6014;47.690;9.130;2022-08-14T18:02:57;24.70;52.60
11908;DHT22;6014;47.690;9.130;2022-08-14T18:05:28;24.70;52.00
11908;DHT22;6014;47.690;9.130;2022-08-14T18:08:17;24.70;52.00
11908;DHT22;6014;47.690;9.130;2022-08-14T18:11:00;24.60;52.20
11908;DHT22;6014;47.690;9.130;2022-08-14T18:13:29;24.50;52.40
11908;DHT22;6014;47.690;9.130;2022-08-14T18:16:18;24.50;53.00
11908;DHT22;6014;47.690;9.130;2022-08-14T18:18:49;24.40;53.60
11908;DHT22;6014;47.690;9.130;2022-08-14T18:21:20;24.30;54.30
11908;DHT22;6014;47.690;9.130;2022-08-14T18:24:11;24.20;55.10
11908;DHT22;6014;47.690;9.130;2022-08-14T18:26:59;24.10;55.90
11908;DHT22;6014;47.690;9.130;2022-08-14T18:29:42;24.00;56.20
11908;DHT22;6014;47.690;9.130;2022-08-14T18:32:44;24.00;56.40
11908;DHT22;6014;47.690;9.130;2022-08-14T18:35:22;23.90;57.30
11908;DHT22;6014;47.690;9.130;2022-08-14T18:38:18;23.80;57.70
11908;DHT22;6014;47.690;9.130;2022-08-14T18:40:53;23.80;57.50
11908;DHT22;6014;47.690;9.130;2022-08-14T18:43:48;23.80;57.60
11908;DHT22;6014;47.690;9.130;2022-08-14T18:46:25;23.80;58.50
11908;DHT22;6014;47.690;9.130;2022-08-14T18:49:15;23.70;59.20
11908;DHT22;6014;47.690;9.130;2022-08-14T18:51:43;23.60;59.00
11908;DHT22;6014;47.690;9.130;2022-08-14T18:54:35;23.70;59.10
11908;DHT22;6014;47.690;9.130;2022-08-14T18:57:04;23.70;59.50
11908;DHT22;6014;47.690;9.130;2022-08-14T18:59:37;23.70;58.90
11908;DHT22;6014;47.690;9.130;2022-08-14T19:02:41;23.60;59.10
11908;DHT22;6014;47.690;9.130;2022-08-14T19:05:11;23.60;59.30
11908;DHT22;6014;47.690;9.130;2022-08-14T19:07:41;23.60;59.90
11908;DHT22;6014;47.690;9.130;2022-08-14T19:10:28;23.50;60.50
11908;DHT22;6014;47.690;9.130;2022-08-14T19:13:02;23.50;60.50
11908;DHT22;6014;47.690;9.130;2022-08-14T19:15:40;23.50;61.20
11908;DHT22;6014;47.690;9.130;2022-08-14T19:18:21;23.40;62.10
11908;DHT22;6014;47.690;9.130;2022-08-14T19:20:55;23.40;62.70
11908;DHT22;6014;47.690;9.130;2022-08-14T19:23:27;23.40;63.30
11908;DHT22;6014;47.690;9.130;2022-08-14T19:26:26;23.40;63.40
11908;DHT22;6014;47.690;9.130;2022-08-14T19:29:25;23.30;63.90
11908;DHT22;6014;47.690;9.130;2022-08-14T19:32:34;23.40;63.90
11908;DHT22;6014;47.690;9.130;2022-08-14T19:35:42;23.30;64.70
11908;DHT22;6014;47.690;9.130;2022-08-14T19:38:51;23.20;65.60
11908;DHT22;6014;47.690;9.130;2022-08-14T19:41:23;23.20;65.50
11908;DHT22;6014;47.690;9.130;2022-08-14T19:44:07;23.20;66.00
11908;DHT22;6014;47.690;9.130;2022-08-14T19:46:39;23.00;66.50
11908;DHT22;6014;47.690;9.130;2022-08-14T19:49:32;23.00;66.70
11908;DHT22;6014;47.690;9.130;2022-08-14T19:52:21;23.10;67.10
11908;DHT22;6014;47.690;9.130;2022-08-14T19:54:51;23.00;68.20
11908;DHT22;6014;47.690;9.130;2022-08-14T19:57:22;23.00;68.50
11908;DHT22;6014;47.690;9.130;2022-08-14T20:00:05;23.00;68.80
11908;DHT22;6014;47.690;9.130;2022-08-14T20:03:00;23.00;69.60
11908;DHT22;6014;47.690;9.130;2022-08-14T20:05:38;23.00;69.50
11908;DHT22;6014;47.690;9.130;2022-08-14T20:08:12;23.00;69.40
11908;DHT22;6014;47.690;9.130;2022-08-14T20:11:01;23.00;69.30
11908;DHT22;6014;47.690;9.130;2022-08-14T20:13:56;23.00;70.40
11908;DHT22;6014;47.690;9.130;2022-08-14T20:16:31;23.00;71.50
11908;DHT22;6014;47.690;9.130;2022-08-14T20:19:19;22.90;72.20
11908;DHT22;6014;47.690;9.130;2022-08-14T20:21:50;22.90;73.30
11908;DHT22;6014;47.690;9.130;2022-08-14T20:24:41;22.80;73.90
11908;DHT22;6014;47.690;9.130;2022-08-14T20:27:24;22.80;74.20
11908;DHT22;6014;47.690;9.130;2022-08-14T20:30:03;22.80;74.20
11908;DHT22;6014;47.690;9.130;2022-08-14T20:32:55;22.80;74.30
11908;DHT22;6014;47.690;9.130;2022-08-14T20:35:27;22.80;75.10
11908;DHT22;6014;47.690;9.130;2022-08-14T20:38:04;22.70;76.30
11908;DHT22;6014;47.690;9.130;2022-08-14T20:40:56;22.70;77.90
11908;DHT22;6014;47.690;9.130;2022-08-14T20:43:26;22.80;78.60
11908;DHT22;6014;47.690;9.130;2022-08-14T20:46:14;22.80;78.60
11908;DHT22;6014;47.690;9.130;2022-08-14T20:48:57;22.80;79.30
11908;DHT22;6014;47.690;9.130;2022-08-14T20:51:32;22.70;80.30
11908;DHT22;6014;47.690;9.130;2022-08-14T20:54:06;22.70;80.70
11908;DHT22;6014;47.690;9.130;2022-08-14T20:56:36;22.70;81.40
11908;DHT22;6014;47.690;9.130;2022-08-14T20:59:15;22.70;82.20
11908;DHT22;6014;47.690;9.130;2022-08-14T21:01:51;22.70;82.50
11908;DHT22;6014;47.690;9.130;2022-08-14T21:04:30;22.70;82.50
11908;DHT22;6014;47.690;9.130;2022-08-14T21:07:03;22.70;82.50
11908;DHT22;6014;47.690;9.130;2022-08-14T21:10:05;22.70;81.90
11908;DHT22;6014;47.690;9.130;2022-08-14T21:12:54;22.70;82.50
11908;DHT22;6014;47.690;9.130;2022-08-14T21:15:42;22.70;83.40
11908;DHT22;6014;47.690;9.130;2022-08-14T21:18:27;22.70;85.00
11908;DHT22;6014;47.690;9.130;2022-08-14T21:20:56;22.70;86.40
11908;DHT22;6014;47.690;9.130;2022-08-14T21:23:26;22.60;86.90
11908;DHT22;6014;47.690;9.130;2022-08-14T21:25:59;22.60;89.00
11908;DHT22;6014;47.690;9.130;2022-08-14T21:28:31;22.60;90.30
11908;DHT22;6014;47.690;9.130;2022-08-14T21:31:02;22.60;91.10
11908;DHT22;6014;47.690;9.130;2022-08-14T21:36:10;22.50;91.90
11908;DHT22;6014;47.690;9.130;2022-08-14T21:38:47;22.50;92.10
11908;DHT22;6014;47.690;9.130;2022-08-14T21:41:18;22.50;91.50
11908;DHT22;6014;47.690;9.130;2022-08-14T21:44:09;22.60;91.90
11908;DHT22;6014;47.690;9.130;2022-08-14T21:46:49;22.60;92.70